Etusivu
METAR-TAF:

METAR-TAF

Lentoasemat :

Indira Gandhin kansainvälinen lentoasema

New Delhi, Intia

Leveyspiiri: 28-34N, Pituuspiiri: 077-07E, korkeus merenpinnasta: 220 m

Tämänhetkinen sää

Tämä raportti tehtiin 31 minuuttia sitten, kello 10.30 UTC
Tuuli 10 kn luoteesta
Lämpötila 31°C
Kosteus 31%
Ilmanpaine 1011 hPa
Näkyvyys: 4500 m
usvaa

METAR: VIDP 241030Z 31010KT 4500 HZ NSC 31/12 Q1011 NOSIG

Aika: 16:31 (11:01 UTC)

Sääennuste

Tämä raportti tehtiin 3 tuntia ja 1 minuuttia sitten, kello 08.00 UTC
Ennuste voimassa 24. päivästä klo 09 UTC - 24. päivään klo 18 UTC
Tuuli 5 kn lännestä/luoteesta puuskistuen 15 kn:hen
Näkyvyys: 4000 m
usvaa
Tulossa
24. päivästä klo 15 UTC - 24. päivään klo 17 UTC
Tuuli 5 kn lännestä/luoteesta
Näkyvyys: 3000 m
Muutamia pilviä 4000 ft:n korkeudessa
Hajanaisia pilviä 10000 ft:n korkeudessa
usvaa

TAF: VIDP 240800Z 2409/2418 29005G15KT 4000 HZ NSC BECMG 2415/2417 29005KT 3000 HZ FEW040 SCT100

Säähavainnot ja -ennusteet yli 4000 lentoasemalta (METAR- ja TAF-raportit).

Käytössä olevat sääasemat on merkitty karttaan keltaisilla ja punaisilla pisteillä.

Aseta hiiri pisteen päälle nähdäksesi sääaseman nimen.

Klikkaa sitten nähdäksesi säähavainnot ja -ennusteet.

Kartan vaihtaminen: klikkaa mustalla rastilla varustettuja vihreitä pisteitä, niin voit zoomata sisään; viivalla varustettua vihreää pistettä, niin voit zoomata ulos tai vihreitä nuolia, niin pääset viereisille kartoille.


METAR-TAF: